sensor_id;sensor_type;location;lat;lon;timestamp;P1;P2;P0
65383;PMS5003;51986;52.788;41.368;2023-05-07T00:01:29;26.00;23.00;19.00
65383;PMS5003;51986;52.788;41.368;2023-05-07T00:03:57;25.50;23.00;19.00
65383;PMS5003;51986;52.788;41.368;2023-05-07T00:06:24;22.00;21.00;18.00
65383;PMS5003;51986;52.788;41.368;2023-05-07T00:08:51;22.00;21.00;18.00
65383;PMS5003;51986;52.788;41.368;2023-05-07T00:11:18;21.00;20.00;17.00
65383;PMS5003;51986;52.788;41.368;2023-05-07T00:13:44;23.00;22.00;18.00
65383;PMS5003;51986;52.788;41.368;2023-05-07T00:16:11;21.00;20.00;16.00
65383;PMS5003;51986;52.788;41.368;2023-05-07T00:18:38;24.00;22.00;18.00
65383;PMS5003;51986;52.788;41.368;2023-05-07T00:21:05;26.00;23.00;18.00
65383;PMS5003;51986;52.788;41.368;2023-05-07T00:23:33;23.50;21.50;18.00
65383;PMS5003;51986;52.788;41.368;2023-05-07T00:25:59;27.50;24.00;19.00
65383;PMS5003;51986;52.788;41.368;2023-05-07T00:28:26;28.00;24.00;20.00
65383;PMS5003;51986;52.788;41.368;2023-05-07T00:30:53;28.00;24.00;20.00
65383;PMS5003;51986;52.788;41.368;2023-05-07T00:33:20;27.25;24.00;19.75
65383;PMS5003;51986;52.788;41.368;2023-05-07T00:35:48;26.25;23.25;19.25
65383;PMS5003;51986;52.788;41.368;2023-05-07T00:38:15;24.00;22.00;18.00
65383;PMS5003;51986;52.788;41.368;2023-05-07T00:40:42;19.25;18.75;15.25
65383;PMS5003;51986;52.788;41.368;2023-05-07T00:43:09;24.00;21.75;18.75
65383;PMS5003;51986;52.788;41.368;2023-05-07T00:45:36;27.25;24.00;19.00
65383;PMS5003;51986;52.788;41.368;2023-05-07T00:48:03;26.00;23.50;19.00
65383;PMS5003;51986;52.788;41.368;2023-05-07T00:50:30;26.50;23.00;18.25
65383;PMS5003;51986;52.788;41.368;2023-05-07T00:52:58;24.00;22.00;18.00
65383;PMS5003;51986;52.788;41.368;2023-05-07T00:55:26;24.75;22.75;18.75
65383;PMS5003;51986;52.788;41.368;2023-05-07T00:57:53;22.00;20.75;17.00
65383;PMS5003;51986;52.788;41.368;2023-05-07T01:00:20;25.00;23.00;19.00
65383;PMS5003;51986;52.788;41.368;2023-05-07T01:02:47;24.00;22.00;18.00
65383;PMS5003;51986;52.788;41.368;2023-05-07T01:05:15;25.00;23.00;19.00
65383;PMS5003;51986;52.788;41.368;2023-05-07T01:07:45;26.50;24.00;19.75
65383;PMS5003;51986;52.788;41.368;2023-05-07T01:10:14;26.00;23.25;20.00
65383;PMS5003;51986;52.788;41.368;2023-05-07T01:12:42;25.00;22.00;18.00
65383;PMS5003;51986;52.788;41.368;2023-05-07T01:15:11;23.25;21.75;18.00
65383;PMS5003;51986;52.788;41.368;2023-05-07T01:17:38;27.75;24.00;19.75
65383;PMS5003;51986;52.788;41.368;2023-05-07T01:20:11;23.50;22.00;18.00
65383;PMS5003;51986;52.788;41.368;2023-05-07T01:22:40;26.25;24.00;19.00
65383;PMS5003;51986;52.788;41.368;2023-05-07T01:25:08;24.00;22.00;18.00
65383;PMS5003;51986;52.788;41.368;2023-05-07T01:27:40;20.50;19.00;15.50
65383;PMS5003;51986;52.788;41.368;2023-05-07T01:30:07;20.00;20.00;16.00
65383;PMS5003;51986;52.788;41.368;2023-05-07T01:35:21;24.00;22.00;18.00
65383;PMS5003;51986;52.788;41.368;2023-05-07T01:37:52;28.75;24.25;20.00
65383;PMS5003;51986;52.788;41.368;2023-05-07T01:40:20;28.50;25.00;20.00
65383;PMS5003;51986;52.788;41.368;2023-05-07T01:42:48;27.50;24.50;20.00
65383;PMS5003;51986;52.788;41.368;2023-05-07T01:45:14;30.00;25.00;20.00
65383;PMS5003;51986;52.788;41.368;2023-05-07T01:47:41;25.25;23.00;19.00
65383;PMS5003;51986;52.788;41.368;2023-05-07T01:50:09;26.00;23.00;19.00
65383;PMS5003;51986;52.788;41.368;2023-05-07T01:52:37;27.00;24.00;19.00
65383;PMS5003;51986;52.788;41.368;2023-05-07T01:55:05;24.00;21.00;18.00
65383;PMS5003;51986;52.788;41.368;2023-05-07T01:57:33;27.00;24.00;19.75
65383;PMS5003;51986;52.788;41.368;2023-05-07T02:00:00;28.50;24.25;20.00
65383;PMS5003;51986;52.788;41.368;2023-05-07T02:02:28;29.75;25.00;20.00
65383;PMS5003;51986;52.788;41.368;2023-05-07T02:04:57;23.00;22.00;18.00
65383;PMS5003;51986;52.788;41.368;2023-05-07T02:07:24;22.00;21.00;17.00
65383;PMS5003;51986;52.788;41.368;2023-05-07T02:09:52;24.25;22.25;18.00
65383;PMS5003;51986;52.788;41.368;2023-05-07T02:12:19;24.00;22.00;18.00
65383;PMS5003;51986;52.788;41.368;2023-05-07T02:14:46;27.75;24.00;19.25
65383;PMS5003;51986;52.788;41.368;2023-05-07T02:17:13;26.00;23.25;18.25
65383;PMS5003;51986;52.788;41.368;2023-05-07T02:19:40;27.50;24.00;19.00
65383;PMS5003;51986;52.788;41.368;2023-05-07T02:22:07;30.00;25.75;20.50
65383;PMS5003;51986;52.788;41.368;2023-05-07T02:24:34;28.00;24.00;19.00
65383;PMS5003;51986;52.788;41.368;2023-05-07T02:27:01;26.00;23.00;18.00
65383;PMS5003;51986;52.788;41.368;2023-05-07T02:29:28;24.00;22.00;18.00
65383;PMS5003;51986;52.788;41.368;2023-05-07T02:31:55;28.50;24.25;20.00
65383;PMS5003;51986;52.788;41.368;2023-05-07T02:34:22;30.00;25.50;20.00
65383;PMS5003;51986;52.788;41.368;2023-05-07T02:36:49;30.00;25.75;20.00
65383;PMS5003;51986;52.788;41.368;2023-05-07T02:39:20;27.50;24.00;20.00
65383;PMS5003;51986;52.788;41.368;2023-05-07T02:41:47;28.75;25.00;21.00
65383;PMS5003;51986;52.788;41.368;2023-05-07T02:44:14;28.00;24.00;20.00
65383;PMS5003;51986;52.788;41.368;2023-05-07T02:46:42;27.00;23.25;19.25
65383;PMS5003;51986;52.788;41.368;2023-05-07T02:49:11;30.00;25.00;21.00
65383;PMS5003;51986;52.788;41.368;2023-05-07T02:51:38;28.50;24.00;20.00
65383;PMS5003;51986;52.788;41.368;2023-05-07T02:54:10;28.00;24.00;20.00
65383;PMS5003;51986;52.788;41.368;2023-05-07T02:56:37;26.50;22.50;18.00
65383;PMS5003;51986;52.788;41.368;2023-05-07T02:59:04;31.00;25.75;20.25
65383;PMS5003;51986;52.788;41.368;2023-05-07T03:01:36;29.50;26.00;20.00
65383;PMS5003;51986;52.788;41.368;2023-05-07T03:04:05;31.00;27.00;21.00
65383;PMS5003;51986;52.788;41.368;2023-05-07T03:06:32;31.75;26.50;21.00
65383;PMS5003;51986;52.788;41.368;2023-05-07T03:08:59;34.00;29.00;23.50
65383;PMS5003;51986;52.788;41.368;2023-05-07T03:11:26;34.50;29.50;24.00
65383;PMS5003;51986;52.788;41.368;2023-05-07T03:13:53;35.00;30.00;24.00
65383;PMS5003;51986;52.788;41.368;2023-05-07T03:16:21;36.00;31.00;25.00
65383;PMS5003;51986;52.788;41.368;2023-05-07T03:18:48;35.00;29.25;23.00
65383;PMS5003;51986;52.788;41.368;2023-05-07T03:21:15;36.00;30.00;25.00
65383;PMS5003;51986;52.788;41.368;2023-05-07T03:23:42;36.00;31.00;24.50
65383;PMS5003;51986;52.788;41.368;2023-05-07T03:26:09;37.25;32.00;25.00
65383;PMS5003;51986;52.788;41.368;2023-05-07T03:28:36;38.00;31.00;25.00
65383;PMS5003;51986;52.788;41.368;2023-05-07T03:31:08;36.50;30.50;24.00
65383;PMS5003;51986;52.788;41.368;2023-05-07T03:33:35;36.50;30.00;24.00
65383;PMS5003;51986;52.788;41.368;2023-05-07T03:36:05;35.50;30.00;24.00
65383;PMS5003;51986;52.788;41.368;2023-05-07T03:38:32;36.00;30.00;24.00
65383;PMS5003;51986;52.788;41.368;2023-05-07T03:41:00;36.00;30.50;25.00
65383;PMS5003;51986;52.788;41.368;2023-05-07T03:43:27;35.50;30.50;25.00
65383;PMS5003;51986;52.788;41.368;2023-05-07T03:46:03;36.50;31.00;25.50
65383;PMS5003;51986;52.788;41.368;2023-05-07T03:48:30;37.00;31.50;26.00
65383;PMS5003;51986;52.788;41.368;2023-05-07T03:50:58;36.50;30.75;24.75
65383;PMS5003;51986;52.788;41.368;2023-05-07T03:53:29;39.00;32.00;25.00
65383;PMS5003;51986;52.788;41.368;2023-05-07T03:55:56;38.00;32.00;26.00
65383;PMS5003;51986;52.788;41.368;2023-05-07T03:58:23;38.00;31.50;25.50
65383;PMS5003;51986;52.788;41.368;2023-05-07T04:00:52;38.00;32.00;26.00
65383;PMS5003;51986;52.788;41.368;2023-05-07T04:03:26;38.00;31.50;25.50
65383;PMS5003;51986;52.788;41.368;2023-05-07T04:05:56;38.00;31.50;26.00
65383;PMS5003;51986;52.788;41.368;2023-05-07T04:08:23;37.00;31.00;25.00
65383;PMS5003;51986;52.788;41.368;2023-05-07T04:11:01;37.00;31.00;25.00
65383;PMS5003;51986;52.788;41.368;2023-05-07T04:13:31;35.50;30.00;24.00
65383;PMS5003;51986;52.788;41.368;2023-05-07T04:16:01;34.00;29.00;24.00
65383;PMS5003;51986;52.788;41.368;2023-05-07T04:18:30;35.50;30.00;24.50
65383;PMS5003;51986;52.788;41.368;2023-05-07T04:20:58;36.00;31.00;25.00
65383;PMS5003;51986;52.788;41.368;2023-05-07T04:23:25;35.50;30.00;24.00
65383;PMS5003;51986;52.788;41.368;2023-05-07T04:25:53;36.00;30.25;25.00
65383;PMS5003;51986;52.788;41.368;2023-05-07T04:28:25;36.00;30.00;24.00
65383;PMS5003;51986;52.788;41.368;2023-05-07T04:30:52;35.50;30.00;24.00
65383;PMS5003;51986;52.788;41.368;2023-05-07T04:33:20;36.00;30.00;24.00
65383;PMS5003;51986;52.788;41.368;2023-05-07T04:35:50;35.50;29.50;24.00
65383;PMS5003;51986;52.788;41.368;2023-05-07T04:38:17;35.00;30.00;24.00
65383;PMS5003;51986;52.788;41.368;2023-05-07T04:40:46;35.00;30.00;24.00
65383;PMS5003;51986;52.788;41.368;2023-05-07T04:43:17;35.00;30.00;24.00
65383;PMS5003;51986;52.788;41.368;2023-05-07T04:45:49;36.00;31.00;25.00
65383;PMS5003;51986;52.788;41.368;2023-05-07T04:48:17;35.00;30.00;24.00
65383;PMS5003;51986;52.788;41.368;2023-05-07T04:50:48;34.50;29.50;24.00
65383;PMS5003;51986;52.788;41.368;2023-05-07T04:53:17;34.00;29.00;24.00
65383;PMS5003;51986;52.788;41.368;2023-05-07T04:55:45;34.00;30.00;24.00
65383;PMS5003;51986;52.788;41.368;2023-05-07T04:58:12;33.00;28.00;23.00
65383;PMS5003;51986;52.788;41.368;2023-05-07T05:00:41;32.25;28.00;23.00
65383;PMS5003;51986;52.788;41.368;2023-05-07T05:03:08;33.00;28.00;23.00
65383;PMS5003;51986;52.788;41.368;2023-05-07T05:05:37;31.75;27.00;23.00
65383;PMS5003;51986;52.788;41.368;2023-05-07T05:08:04;32.00;27.25;22.25
65383;PMS5003;51986;52.788;41.368;2023-05-07T05:10:35;33.00;28.00;23.00
65383;PMS5003;51986;52.788;41.368;2023-05-07T05:13:02;32.00;28.00;22.00
65383;PMS5003;51986;52.788;41.368;2023-05-07T05:15:30;32.00;27.00;22.00
65383;PMS5003;51986;52.788;41.368;2023-05-07T05:18:00;32.00;27.00;22.00
65383;PMS5003;51986;52.788;41.368;2023-05-07T05:20:29;32.00;27.00;22.00
65383;PMS5003;51986;52.788;41.368;2023-05-07T05:22:56;31.50;26.00;21.00
65383;PMS5003;51986;52.788;41.368;2023-05-07T05:25:23;32.00;27.00;22.25
65383;PMS5003;51986;52.788;41.368;2023-05-07T05:28:08;32.00;27.25;22.50
65383;PMS5003;51986;52.788;41.368;2023-05-07T05:30:36;32.50;27.00;23.00
65383;PMS5003;51986;52.788;41.368;2023-05-07T05:33:03;32.00;28.00;23.00
65383;PMS5003;51986;52.788;41.368;2023-05-07T05:38:16;32.00;27.00;22.00
65383;PMS5003;51986;52.788;41.368;2023-05-07T05:40:43;31.50;27.00;22.00
65383;PMS5003;51986;52.788;41.368;2023-05-07T05:43:10;31.00;27.00;22.00
65383;PMS5003;51986;52.788;41.368;2023-05-07T05:45:37;32.00;27.50;22.50
65383;PMS5003;51986;52.788;41.368;2023-05-07T05:48:05;32.00;27.00;22.00
65383;PMS5003;51986;52.788;41.368;2023-05-07T05:50:32;32.50;28.00;23.00
65383;PMS5003;51986;52.788;41.368;2023-05-07T05:52:59;32.50;28.00;23.00
65383;PMS5003;51986;52.788;41.368;2023-05-07T05:55:27;32.75;28.00;22.75
65383;PMS5003;51986;52.788;41.368;2023-05-07T05:57:54;32.75;28.00;22.00
65383;PMS5003;51986;52.788;41.368;2023-05-07T06:00:22;32.50;28.00;23.00
65383;PMS5003;51986;52.788;41.368;2023-05-07T06:02:57;33.00;28.00;22.00
65383;PMS5003;51986;52.788;41.368;2023-05-07T06:05:25;32.00;27.50;22.00
65383;PMS5003;51986;52.788;41.368;2023-05-07T06:07:54;32.00;28.00;22.00
65383;PMS5003;51986;52.788;41.368;2023-05-07T06:10:21;31.00;27.00;21.00
65383;PMS5003;51986;52.788;41.368;2023-05-07T06:12:48;31.00;27.00;22.00
65383;PMS5003;51986;52.788;41.368;2023-05-07T06:15:16;31.00;27.00;21.00
65383;PMS5003;51986;52.788;41.368;2023-05-07T06:17:44;31.25;27.25;22.00
65383;PMS5003;51986;52.788;41.368;2023-05-07T06:20:11;31.00;27.00;22.00
65383;PMS5003;51986;52.788;41.368;2023-05-07T06:22:39;30.75;26.00;21.25
65383;PMS5003;51986;52.788;41.368;2023-05-07T06:25:08;33.00;28.00;23.00
65383;PMS5003;51986;52.788;41.368;2023-05-07T06:27:36;32.00;28.00;22.00
65383;PMS5003;51986;52.788;41.368;2023-05-07T06:30:03;31.00;27.00;22.50
65383;PMS5003;51986;52.788;41.368;2023-05-07T06:32:31;32.00;27.00;22.00
65383;PMS5003;51986;52.788;41.368;2023-05-07T06:34:58;31.00;27.00;22.00
65383;PMS5003;51986;52.788;41.368;2023-05-07T06:37:25;32.00;28.00;23.00
65383;PMS5003;51986;52.788;41.368;2023-05-07T06:39:57;33.00;29.00;23.00
65383;PMS5003;51986;52.788;41.368;2023-05-07T06:42:26;33.00;27.00;22.00
65383;PMS5003;51986;52.788;41.368;2023-05-07T06:44:58;33.00;27.50;22.00
65383;PMS5003;51986;52.788;41.368;2023-05-07T06:47:27;33.00;28.00;22.50
65383;PMS5003;51986;52.788;41.368;2023-05-07T06:49:54;33.00;28.00;23.00
65383;PMS5003;51986;52.788;41.368;2023-05-07T06:52:25;33.75;29.00;23.00
65383;PMS5003;51986;52.788;41.368;2023-05-07T06:54:53;33.00;28.00;23.00
65383;PMS5003;51986;52.788;41.368;2023-05-07T06:57:21;33.50;28.00;23.00
65383;PMS5003;51986;52.788;41.368;2023-05-07T06:59:49;32.50;28.00;23.00
65383;PMS5003;51986;52.788;41.368;2023-05-07T07:02:16;33.00;28.00;23.00
65383;PMS5003;51986;52.788;41.368;2023-05-07T07:04:45;34.00;28.50;23.00
65383;PMS5003;51986;52.788;41.368;2023-05-07T07:07:15;33.50;28.00;23.00
65383;PMS5003;51986;52.788;41.368;2023-05-07T07:09:44;35.00;30.00;24.00
65383;PMS5003;51986;52.788;41.368;2023-05-07T07:12:13;34.00;29.00;23.00
65383;PMS5003;51986;52.788;41.368;2023-05-07T07:14:41;33.50;28.00;23.00
65383;PMS5003;51986;52.788;41.368;2023-05-07T07:17:08;33.00;28.75;23.00
65383;PMS5003;51986;52.788;41.368;2023-05-07T07:19:35;34.00;29.00;24.00
65383;PMS5003;51986;52.788;41.368;2023-05-07T07:22:03;32.75;28.50;23.00
65383;PMS5003;51986;52.788;41.368;2023-05-07T07:24:31;34.50;28.50;23.00
65383;PMS5003;51986;52.788;41.368;2023-05-07T07:27:02;33.50;28.50;23.00
65383;PMS5003;51986;52.788;41.368;2023-05-07T07:29:31;33.00;28.00;23.00
65383;PMS5003;51986;52.788;41.368;2023-05-07T07:31:59;33.50;29.00;23.00
65383;PMS5003;51986;52.788;41.368;2023-05-07T07:34:28;33.00;28.00;23.00
65383;PMS5003;51986;52.788;41.368;2023-05-07T07:36:55;33.00;28.00;23.00
65383;PMS5003;51986;52.788;41.368;2023-05-07T07:39:23;34.00;29.00;23.75
65383;PMS5003;51986;52.788;41.368;2023-05-07T07:41:53;34.00;29.00;23.00
65383;PMS5003;51986;52.788;41.368;2023-05-07T07:44:20;33.00;28.00;23.00
65383;PMS5003;51986;52.788;41.368;2023-05-07T07:46:52;33.00;29.00;23.00
65383;PMS5003;51986;52.788;41.368;2023-05-07T07:49:24;32.00;28.00;22.50
65383;PMS5003;51986;52.788;41.368;2023-05-07T07:51:51;33.00;29.00;23.00
65383;PMS5003;51986;52.788;41.368;2023-05-07T07:54:18;33.00;29.00;23.00
65383;PMS5003;51986;52.788;41.368;2023-05-07T07:56:45;32.50;28.50;23.00
65383;PMS5003;51986;52.788;41.368;2023-05-07T07:59:14;33.50;28.00;23.00
65383;PMS5003;51986;52.788;41.368;2023-05-07T08:01:40;34.00;29.00;23.25
65383;PMS5003;51986;52.788;41.368;2023-05-07T08:04:08;32.50;28.00;23.00
65383;PMS5003;51986;52.788;41.368;2023-05-07T08:06:38;32.75;28.00;22.00
65383;PMS5003;51986;52.788;41.368;2023-05-07T08:09:07;32.50;28.00;23.00
65383;PMS5003;51986;52.788;41.368;2023-05-07T08:11:35;34.00;28.50;23.00
65383;PMS5003;51986;52.788;41.368;2023-05-07T08:14:03;34.00;28.50;23.00
65383;PMS5003;51986;52.788;41.368;2023-05-07T08:16:30;32.50;27.50;22.75
65383;PMS5003;51986;52.788;41.368;2023-05-07T08:18:59;32.50;27.50;22.00
65383;PMS5003;51986;52.788;41.368;2023-05-07T08:21:26;34.00;29.00;23.75
65383;PMS5003;51986;52.788;41.368;2023-05-07T08:23:53;32.50;27.50;22.50
65383;PMS5003;51986;52.788;41.368;2023-05-07T08:26:20;35.50;30.50;23.50
65383;PMS5003;51986;52.788;41.368;2023-05-07T08:28:47;35.00;30.00;23.00
65383;PMS5003;51986;52.788;41.368;2023-05-07T08:31:14;36.00;30.00;23.25
65383;PMS5003;51986;52.788;41.368;2023-05-07T08:33:43;34.00;29.00;23.00
65383;PMS5003;51986;52.788;41.368;2023-05-07T08:36:10;34.00;29.00;23.00
65383;PMS5003;51986;52.788;41.368;2023-05-07T08:38:37;34.00;29.50;24.00
65383;PMS5003;51986;52.788;41.368;2023-05-07T08:41:04;33.00;29.00;23.00
65383;PMS5003;51986;52.788;41.368;2023-05-07T08:43:34;32.50;28.50;23.50
65383;PMS5003;51986;52.788;41.368;2023-05-07T08:46:04;34.50;29.25;23.25
65383;PMS5003;51986;52.788;41.368;2023-05-07T08:48:38;40.50;33.00;25.50
65383;PMS5003;51986;52.788;41.368;2023-05-07T08:51:15;37.00;31.00;26.00
65383;PMS5003;51986;52.788;41.368;2023-05-07T08:53:45;35.00;30.00;24.00
65383;PMS5003;51986;52.788;41.368;2023-05-07T08:56:17;34.00;29.00;24.00
65383;PMS5003;51986;52.788;41.368;2023-05-07T08:58:48;34.00;29.00;24.00
65383;PMS5003;51986;52.788;41.368;2023-05-07T09:01:15;35.00;30.00;23.00
65383;PMS5003;51986;52.788;41.368;2023-05-07T09:03:47;37.00;31.00;25.00
65383;PMS5003;51986;52.788;41.368;2023-05-07T09:06:15;36.00;31.00;24.00
65383;PMS5003;51986;52.788;41.368;2023-05-07T09:08:52;36.50;31.00;24.00
65383;PMS5003;51986;52.788;41.368;2023-05-07T09:11:24;36.00;31.00;24.00
65383;PMS5003;51986;52.788;41.368;2023-05-07T09:13:54;35.00;30.00;24.00
65383;PMS5003;51986;52.788;41.368;2023-05-07T09:16:23;34.50;29.50;24.00
65383;PMS5003;51986;52.788;41.368;2023-05-07T09:18:52;34.50;29.00;23.00
65383;PMS5003;51986;52.788;41.368;2023-05-07T09:21:21;35.00;30.00;23.00
65383;PMS5003;51986;52.788;41.368;2023-05-07T09:23:51;34.50;29.50;23.50
65383;PMS5003;51986;52.788;41.368;2023-05-07T09:26:22;34.50;29.00;23.50
65383;PMS5003;51986;52.788;41.368;2023-05-07T09:28:51;34.75;29.00;24.00
65383;PMS5003;51986;52.788;41.368;2023-05-07T09:31:18;35.00;30.00;24.00
65383;PMS5003;51986;52.788;41.368;2023-05-07T09:33:49;34.00;29.00;23.50
65383;PMS5003;51986;52.788;41.368;2023-05-07T09:36:17;33.50;28.50;23.00
65383;PMS5003;51986;52.788;41.368;2023-05-07T09:38:44;34.50;29.25;24.00
65383;PMS5003;51986;52.788;41.368;2023-05-07T09:41:12;34.75;29.75;23.00
65383;PMS5003;51986;52.788;41.368;2023-05-07T09:44:18;33.00;29.00;23.00
65383;PMS5003;51986;52.788;41.368;2023-05-07T09:46:51;33.00;28.00;23.00
65383;PMS5003;51986;52.788;41.368;2023-05-07T09:49:28;33.00;28.00;23.00
65383;PMS5003;51986;52.788;41.368;2023-05-07T09:52:04;32.00;27.00;22.50
65383;PMS5003;51986;52.788;41.368;2023-05-07T09:54:35;32.00;27.00;23.00
65383;PMS5003;51986;52.788;41.368;2023-05-07T09:57:03;31.50;27.00;23.00
65383;PMS5003;51986;52.788;41.368;2023-05-07T09:59:32;33.50;28.75;23.25
65383;PMS5003;51986;52.788;41.368;2023-05-07T10:02:02;34.00;29.00;24.00
65383;PMS5003;51986;52.788;41.368;2023-05-07T10:04:35;33.50;28.50;23.50
65383;PMS5003;51986;52.788;41.368;2023-05-07T10:07:04;33.75;29.00;23.75
65383;PMS5003;51986;52.788;41.368;2023-05-07T10:09:34;34.00;29.00;23.00
65383;PMS5003;51986;52.788;41.368;2023-05-07T10:12:03;33.00;29.00;23.00
65383;PMS5003;51986;52.788;41.368;2023-05-07T10:14:30;34.75;29.75;23.00
65383;PMS5003;51986;52.788;41.368;2023-05-07T10:16:59;35.00;30.00;24.00
65383;PMS5003;51986;52.788;41.368;2023-05-07T10:19:29;35.00;30.00;23.00
65383;PMS5003;51986;52.788;41.368;2023-05-07T10:21:59;35.00;29.00;24.00
65383;PMS5003;51986;52.788;41.368;2023-05-07T10:24:35;34.75;29.75;23.00
65383;PMS5003;51986;52.788;41.368;2023-05-07T10:27:09;35.00;30.00;24.00
65383;PMS5003;51986;52.788;41.368;2023-05-07T10:35:26;36.00;31.00;24.00
65383;PMS5003;51986;52.788;41.368;2023-05-07T10:37:59;34.50;29.50;23.00
65383;PMS5003;51986;52.788;41.368;2023-05-07T10:40:29;34.00;29.00;23.00
65383;PMS5003;51986;52.788;41.368;2023-05-07T10:43:02;33.00;28.00;23.00
65383;PMS5003;51986;52.788;41.368;2023-05-07T10:49:20;32.50;27.50;23.00
65383;PMS5003;51986;52.788;41.368;2023-05-07T10:51:34;33.75;29.00;23.25
65383;PMS5003;51986;52.788;41.368;2023-05-07T10:56:41;35.00;29.00;24.00
65383;PMS5003;51986;52.788;41.368;2023-05-07T11:01:55;35.00;30.00;24.00
65383;PMS5003;51986;52.788;41.368;2023-05-07T11:04:30;35.25;30.00;24.00
65383;PMS5003;51986;52.788;41.368;2023-05-07T11:07:27;36.00;30.50;24.00
65383;PMS5003;51986;52.788;41.368;2023-05-07T11:10:00;34.00;29.00;23.00
65383;PMS5003;51986;52.788;41.368;2023-05-07T11:13:04;35.00;30.00;23.00
65383;PMS5003;51986;52.788;41.368;2023-05-07T11:15:44;33.50;28.50;23.50
65383;PMS5003;51986;52.788;41.368;2023-05-07T11:18:22;33.00;28.00;23.00
65383;PMS5003;51986;52.788;41.368;2023-05-07T11:26:17;34.00;28.00;23.00
65383;PMS5003;51986;52.788;41.368;2023-05-07T11:28:45;33.50;28.00;23.00
65383;PMS5003;51986;52.788;41.368;2023-05-07T11:31:12;35.00;29.00;23.25
65383;PMS5003;51986;52.788;41.368;2023-05-07T11:33:39;35.00;30.00;24.00
65383;PMS5003;51986;52.788;41.368;2023-05-07T11:36:12;34.50;29.50;23.00
65383;PMS5003;51986;52.788;41.368;2023-05-07T11:38:44;34.00;29.00;23.00
65383;PMS5003;51986;52.788;41.368;2023-05-07T11:41:12;34.25;29.25;23.00
65383;PMS5003;51986;52.788;41.368;2023-05-07T11:43:52;34.00;29.00;23.00
65383;PMS5003;51986;52.788;41.368;2023-05-07T11:46:20;34.00;29.00;23.00
65383;PMS5003;51986;52.788;41.368;2023-05-07T11:48:47;34.00;29.00;23.00
65383;PMS5003;51986;52.788;41.368;2023-05-07T11:51:18;35.00;29.00;23.00
65383;PMS5003;51986;52.788;41.368;2023-05-07T11:53:45;34.00;28.50;23.00
65383;PMS5003;51986;52.788;41.368;2023-05-07T11:56:13;35.00;29.00;24.00
65383;PMS5003;51986;52.788;41.368;2023-05-07T11:58:42;34.00;29.00;24.00
65383;PMS5003;51986;52.788;41.368;2023-05-07T12:01:12;34.00;29.00;24.00
65383;PMS5003;51986;52.788;41.368;2023-05-07T12:03:40;33.50;28.00;23.00
65383;PMS5003;51986;52.788;41.368;2023-05-07T12:06:08;34.00;29.00;23.50
65383;PMS5003;51986;52.788;41.368;2023-05-07T12:08:36;35.00;29.00;24.00
65383;PMS5003;51986;52.788;41.368;2023-05-07T12:11:06;34.50;29.25;23.00
65383;PMS5003;51986;52.788;41.368;2023-05-07T12:13:34;35.00;29.00;23.00
65383;PMS5003;51986;52.788;41.368;2023-05-07T12:16:02;34.00;29.00;23.00
65383;PMS5003;51986;52.788;41.368;2023-05-07T12:18:30;34.00;29.00;24.00
65383;PMS5003;51986;52.788;41.368;2023-05-07T12:20:57;34.25;29.25;24.00
65383;PMS5003;51986;52.788;41.368;2023-05-07T12:23:26;35.00;30.00;24.50
65383;PMS5003;51986;52.788;41.368;2023-05-07T12:25:53;32.50;27.50;23.00
65383;PMS5003;51986;52.788;41.368;2023-05-07T12:28:19;33.00;28.00;23.00
65383;PMS5003;51986;52.788;41.368;2023-05-07T12:30:47;34.00;29.25;24.00
65383;PMS5003;51986;52.788;41.368;2023-05-07T12:33:18;33.00;29.00;23.00
65383;PMS5003;51986;52.788;41.368;2023-05-07T12:35:49;34.50;29.50;24.00
65383;PMS5003;51986;52.788;41.368;2023-05-07T12:38:17;34.00;29.00;24.00
65383;PMS5003;51986;52.788;41.368;2023-05-07T12:40:48;34.00;29.00;23.00
65383;PMS5003;51986;52.788;41.368;2023-05-07T12:43:20;33.75;29.00;23.00
65383;PMS5003;51986;52.788;41.368;2023-05-07T12:45:51;35.50;30.00;24.00
65383;PMS5003;51986;52.788;41.368;2023-05-07T12:48:20;36.00;30.50;25.00
65383;PMS5003;51986;52.788;41.368;2023-05-07T12:50:49;34.50;29.50;23.50
65383;PMS5003;51986;52.788;41.368;2023-05-07T12:53:23;34.00;29.00;23.00
65383;PMS5003;51986;52.788;41.368;2023-05-07T12:55:52;34.00;29.00;24.00
65383;PMS5003;51986;52.788;41.368;2023-05-07T12:58:24;33.00;28.00;23.00
65383;PMS5003;51986;52.788;41.368;2023-05-07T13:00:53;34.00;29.00;24.00
65383;PMS5003;51986;52.788;41.368;2023-05-07T13:03:25;34.00;29.00;23.50
65383;PMS5003;51986;52.788;41.368;2023-05-07T13:05:54;33.00;28.00;23.00
65383;PMS5003;51986;52.788;41.368;2023-05-07T13:08:28;34.50;28.75;23.00
65383;PMS5003;51986;52.788;41.368;2023-05-07T13:10:56;34.00;28.00;23.00
65383;PMS5003;51986;52.788;41.368;2023-05-07T13:13:24;34.00;29.75;24.00
65383;PMS5003;51986;52.788;41.368;2023-05-07T13:15:56;33.00;28.50;23.00
65383;PMS5003;51986;52.788;41.368;2023-05-07T13:18:26;34.00;29.00;24.00
65383;PMS5003;51986;52.788;41.368;2023-05-07T13:20:54;33.00;28.00;23.00
65383;PMS5003;51986;52.788;41.368;2023-05-07T13:23:21;34.25;29.25;23.00
65383;PMS5003;51986;52.788;41.368;2023-05-07T13:25:48;34.00;29.00;23.00
65383;PMS5003;51986;52.788;41.368;2023-05-07T13:28:16;35.00;30.00;23.00
65383;PMS5003;51986;52.788;41.368;2023-05-07T13:30:44;35.50;30.00;23.50
65383;PMS5003;51986;52.788;41.368;2023-05-07T13:33:11;34.50;29.00;23.00
65383;PMS5003;51986;52.788;41.368;2023-05-07T13:35:38;34.00;29.00;23.00
65383;PMS5003;51986;52.788;41.368;2023-05-07T13:38:05;34.00;29.00;23.50
65383;PMS5003;51986;52.788;41.368;2023-05-07T13:40:32;33.50;28.00;23.00
65383;PMS5003;51986;52.788;41.368;2023-05-07T13:42:59;33.00;28.00;23.00
65383;PMS5003;51986;52.788;41.368;2023-05-07T13:45:27;33.00;28.00;23.00
65383;PMS5003;51986;52.788;41.368;2023-05-07T13:47:55;34.50;29.50;23.00
65383;PMS5003;51986;52.788;41.368;2023-05-07T13:50:25;33.00;29.00;23.00
65383;PMS5003;51986;52.788;41.368;2023-05-07T13:52:52;34.25;29.00;23.00
65383;PMS5003;51986;52.788;41.368;2023-05-07T13:55:20;35.00;29.00;23.00
65383;PMS5003;51986;52.788;41.368;2023-05-07T13:57:59;35.50;30.00;23.50
65383;PMS5003;51986;52.788;41.368;2023-05-07T14:00:31;33.00;27.50;23.00
65383;PMS5003;51986;52.788;41.368;2023-05-07T14:02:59;33.00;28.00;23.00
65383;PMS5003;51986;52.788;41.368;2023-05-07T14:05:29;33.00;29.00;23.00
65383;PMS5003;51986;52.788;41.368;2023-05-07T14:07:59;34.00;29.00;23.00
65383;PMS5003;51986;52.788;41.368;2023-05-07T14:10:26;34.00;29.00;23.00